Time;durP1;ratioP1;P1;durP2;ratioP2;P2;SDS_P1;SDS_P2;PMS_P1;PMS_P2;Temp;Humidity;BMP_temperature;BMP_pressure;BME280_temperature;BME280_humidity;BME280_pressure;Samples;Min_cycle;Max_cycle;Signal;HPM_P1;HPM_P2
2022/02/16 00:00:53;;;;;;;14.07;7.57;;;;;;;4.33;100.00;99026.47;7396416;19;20412;-53
2022/02/16 00:03:23;;;;;;;13.57;6.90;;;;;;;4.35;100.00;99012.91;7391232;19;20430;-55
2022/02/16 00:05:54;;;;;;;14.10;5.97;;;;;;;4.34;100.00;99019.69;7397958;19;20399;-56
2022/02/16 00:08:26;;;;;;;15.27;8.47;;;;;;;4.36;100.00;99023.16;7393196;19;20450;-56
2022/02/16 00:10:58;;;;;;;16.83;11.07;;;;;;;4.38;100.00;99016.44;7397686;19;20501;-56
2022/02/16 00:13:32;;;;;;;12.50;8.60;;;;;;;4.38;100.00;99021.56;7392813;19;20430;-54
2022/02/16 00:16:08;;;;;;;17.80;9.10;;;;;;;4.40;100.00;99027.59;7397592;19;20397;-56
2022/02/16 00:18:39;;;;;;;21.93;10.73;;;;;;;4.43;100.00;99021.72;7385759;19;20423;-55
2022/02/16 00:21:10;;;;;;;12.30;7.13;;;;;;;4.46;100.00;99017.59;7397824;19;20402;-55
2022/02/16 00:23:42;;;;;;;8.90;4.57;;;;;;;4.45;100.00;99013.31;7391554;19;20520;-55
2022/02/16 00:26:12;;;;;;;9.43;5.23;;;;;;;4.46;100.00;99012.50;7396172;19;20413;-55
2022/02/16 00:28:42;;;;;;;11.93;6.10;;;;;;;4.49;100.00;99010.88;7392535;19;20774;-55
2022/02/16 00:31:11;;;;;;;14.90;8.10;;;;;;;4.48;100.00;99004.00;7396382;19;20406;-54
2022/02/16 00:33:41;;;;;;;11.40;6.90;;;;;;;4.47;100.00;99005.72;7392310;19;20435;-52
2022/02/16 00:36:10;;;;;;;10.80;6.40;;;;;;;4.46;100.00;99006.50;7396488;19;20365;-54
2022/02/16 00:38:42;;;;;;;11.07;5.90;;;;;;;4.44;100.00;99001.38;7393187;19;20450;-54
2022/02/16 00:41:12;;;;;;;14.20;8.27;;;;;;;4.45;100.00;98995.44;7395392;19;20395;-55
2022/02/16 00:43:42;;;;;;;13.47;7.70;;;;;;;4.44;100.00;98993.69;7388247;19;20414;-55
2022/02/16 00:46:11;;;;;;;13.77;7.70;;;;;;;4.42;100.00;99000.41;7392536;19;20417;-56
2022/02/16 00:48:41;;;;;;;20.23;7.90;;;;;;;4.46;100.00;98991.19;7388792;19;20872;-51
2022/02/16 00:51:10;;;;;;;7.90;5.00;;;;;;;4.44;100.00;98996.25;7392944;19;20749;-53
2022/02/16 00:53:43;;;;;;;6.97;3.90;;;;;;;4.50;100.00;98997.31;7386694;19;20418;-52
2022/02/16 00:56:12;;;;;;;5.90;3.90;;;;;;;4.50;100.00;99000.72;7395942;19;20378;-55
2022/02/16 00:58:43;;;;;;;11.77;5.40;;;;;;;4.52;100.00;98998.22;7388855;19;20405;-56
2022/02/16 01:01:16;;;;;;;8.70;2.93;;;;;;;4.53;100.00;98997.41;7396491;19;20912;-55
2022/02/16 01:03:46;;;;;;;10.00;4.57;;;;;;;4.54;100.00;98994.91;7391748;19;20480;-56
2022/02/16 01:06:15;;;;;;;8.23;4.50;;;;;;;4.50;100.00;99000.72;7395486;19;20473;-56
2022/02/16 01:08:51;;;;;;;9.20;2.83;;;;;;;4.50;100.00;98993.06;7391236;19;20434;-56
2022/02/16 01:11:21;;;;;;;6.13;3.03;;;;;;;4.51;100.00;98994.78;7398681;19;20572;-55
2022/02/16 01:13:53;;;;;;;7.60;4.10;;;;;;;4.50;100.00;98992.19;7398318;19;20453;-54
2022/02/16 01:16:22;;;;;;;5.83;2.83;;;;;;;4.48;100.00;98994.69;7402751;19;20409;-54
2022/02/16 01:18:55;;;;;;;7.40;4.20;;;;;;;4.52;100.00;98988.00;7399529;19;20442;-51
2022/02/16 01:21:24;;;;;;;8.93;4.60;;;;;;;4.50;100.00;98992.19;7403469;19;20399;-52
2022/02/16 01:23:56;;;;;;;8.03;4.30;;;;;;;4.48;100.00;98984.47;7397823;19;20465;-55
2022/02/16 01:26:28;;;;;;;6.67;4.70;;;;;;;4.45;100.00;98980.13;7403100;19;20460;-53
2022/02/16 01:28:58;;;;;;;6.90;4.80;;;;;;;4.49;100.00;98975.09;7398553;19;20457;-55
2022/02/16 01:31:30;;;;;;;9.20;4.63;;;;;;;4.47;100.00;98975.06;7403255;19;20439;-55
2022/02/16 01:34:02;;;;;;;11.03;6.70;;;;;;;4.50;100.00;98974.31;7395919;19;20497;-51
2022/02/16 01:36:35;;;;;;;13.70;5.87;;;;;;;4.53;100.00;98969.31;7401607;19;20903;-54
2022/02/16 01:39:07;;;;;;;11.27;4.93;;;;;;;4.55;100.00;98965.13;7396048;19;20440;-55
2022/02/16 01:41:37;;;;;;;9.67;5.70;;;;;;;4.57;100.00;98964.38;7402133;19;20475;-53
2022/02/16 01:44:07;;;;;;;8.83;5.43;;;;;;;4.59;100.00;98956.75;7398064;19;20434;-53
2022/02/16 01:46:51;;;;;;;9.30;5.30;;;;;;;4.59;100.00;98960.22;7401951;19;20387;-52
2022/02/16 01:49:20;;;;;;;11.13;6.00;;;;;;;4.61;100.00;98951.72;7401115;19;20460;-54
2022/02/16 01:51:50;;;;;;;13.37;7.20;;;;;;;4.66;100.00;98943.41;7399653;19;20466;-55
2022/02/16 01:54:23;;;;;;;11.63;6.40;;;;;;;4.66;100.00;98947.66;7399875;19;20423;-54
2022/02/16 01:56:53;;;;;;;14.20;6.70;;;;;;;4.70;100.00;98937.59;7399283;19;20391;-53
2022/02/16 01:59:24;;;;;;;19.10;4.90;;;;;;;4.66;100.00;98935.72;7401858;19;21022;-55
2022/02/16 02:01:54;;;;;;;12.00;6.67;;;;;;;4.71;100.00;98923.13;7398610;19;20403;-51
2022/02/16 02:04:23;;;;;;;11.77;6.93;;;;;;;4.75;100.00;98918.97;7399769;19;20838;-54
2022/02/16 02:06:53;;;;;;;14.23;7.90;;;;;;;4.75;100.00;98906.22;7395841;19;20398;-55
2022/02/16 02:09:25;;;;;;;11.20;6.03;;;;;;;4.70;100.00;98909.50;7400769;19;20486;-53
2022/02/16 02:11:55;;;;;;;11.33;6.23;;;;;;;4.71;100.00;98901.00;7398470;19;20742;-52
2022/02/16 02:14:25;;;;;;;16.80;7.03;;;;;;;4.70;100.00;98899.28;7399450;19;20442;-52
2022/02/16 02:16:54;;;;;;;17.77;7.50;;;;;;;4.75;100.00;98893.44;7397976;19;20728;-51
2022/02/16 02:19:24;;;;;;;12.60;7.07;;;;;;;4.72;100.00;98894.22;7400825;19;20399;-52
2022/02/16 02:21:56;;;;;;;15.63;7.67;;;;;;;4.76;100.00;98893.50;7396412;19;20377;-55
2022/02/16 02:24:26;;;;;;;14.03;6.57;;;;;;;4.75;100.00;98881.53;7397783;19;20936;-55
2022/02/16 02:26:55;;;;;;;10.67;5.93;;;;;;;4.77;100.00;98879.06;7397470;19;20394;-49
2022/02/16 02:29:25;;;;;;;14.70;7.00;;;;;;;4.79;100.00;98874.84;7400243;19;20383;-53
2022/02/16 02:31:54;;;;;;;17.63;7.60;;;;;;;4.79;100.00;98867.19;7396789;19;20394;-54
2022/02/16 02:34:24;;;;;;;13.27;6.60;;;;;;;4.82;100.00;98859.63;7398077;19;20436;-53
2022/02/16 02:36:56;;;;;;;13.33;6.80;;;;;;;4.83;100.00;98858.81;7395781;19;20390;-52
2022/02/16 02:39:27;;;;;;;10.50;5.27;;;;;;;4.83;100.00;98854.56;7400656;19;20404;-55
2022/02/16 02:41:56;;;;;;;10.83;5.97;;;;;;;4.82;100.00;98847.72;7382619;19;20487;-53
2022/02/16 02:44:26;;;;;;;15.20;5.90;;;;;;;4.81;100.00;98850.22;7398427;19;20425;-51
2022/02/16 02:46:56;;;;;;;13.27;6.90;;;;;;;4.83;100.00;98838.38;7397208;19;20409;-49
2022/02/16 02:49:25;;;;;;;13.03;7.30;;;;;;;4.84;100.00;98828.22;7399360;19;20390;-52
2022/02/16 02:51:58;;;;;;;17.47;10.57;;;;;;;4.85;100.00;98821.41;7396051;19;20390;-49
2022/02/16 02:54:27;;;;;;;18.43;10.37;;;;;;;4.83;100.00;98826.44;7397985;19;20505;-50
2022/02/16 02:56:56;;;;;;;18.97;10.20;;;;;;;4.84;100.00;98815.44;7395399;19;20392;-49
2022/02/16 02:59:28;;;;;;;13.83;7.73;;;;;;;4.85;100.00;98811.19;7400348;19;20402;-53
2022/02/16 03:01:57;;;;;;;20.37;11.20;;;;;;;4.88;100.00;98815.53;7397171;19;20394;-51
2022/02/16 03:04:29;;;;;;;19.83;10.53;;;;;;;4.88;100.00;98813.84;7397971;19;20428;-52
2022/02/16 03:07:02;;;;;;;25.03;10.93;;;;;;;4.89;100.00;98817.25;7395842;19;21008;-54
2022/02/16 03:09:31;;;;;;;26.00;12.20;;;;;;;4.92;100.00;98808.00;7399581;19;20379;-54
2022/02/16 03:12:00;;;;;;;24.17;12.23;;;;;;;4.93;100.00;98804.63;7396118;19;20411;-55
2022/02/16 03:14:30;;;;;;;26.43;12.07;;;;;;;4.93;100.00;98814.84;7397901;19;20427;-49
2022/02/16 03:17:00;;;;;;;20.87;11.50;;;;;;;4.95;100.00;98814.91;7391890;19;20761;-52
2022/02/16 03:19:29;;;;;;;23.47;12.03;;;;;;;4.96;100.00;98821.75;7399096;19;20401;-53
2022/02/16 03:22:01;;;;;;;25.60;11.07;;;;;;;4.96;100.00;98827.75;7396031;19;20760;-51
2022/02/16 03:24:31;;;;;;;22.77;11.63;;;;;;;4.98;100.00;98825.25;7395962;19;20442;-54
2022/02/16 03:27:00;;;;;;;31.13;14.80;;;;;;;5.00;100.00;98831.28;7394105;19;20916;-55
2022/02/16 03:29:30;;;;;;;28.27;14.00;;;;;;;5.00;100.00;98828.72;7397543;19;20388;-50
2022/02/16 03:31:59;;;;;;;26.30;12.90;;;;;;;5.02;100.00;98823.66;7392234;19;20405;-54
2022/02/16 03:34:29;;;;;;;24.03;12.27;;;;;;;5.03;100.00;98825.41;7392442;19;20428;-55
2022/02/16 03:37:02;;;;;;;23.47;14.17;;;;;;;5.04;100.00;98819.47;7392961;19;20379;-51
2022/02/16 03:39:32;;;;;;;34.60;15.00;;;;;;;5.08;100.00;98813.63;7398504;19;20469;-53
2022/02/16 03:42:02;;;;;;;26.57;13.27;;;;;;;5.13;100.00;98807.00;7395602;19;20398;-53
2022/02/16 03:44:31;;;;;;;29.27;16.03;;;;;;;5.12;100.00;98795.00;7396966;19;20419;-54
2022/02/16 03:47:01;;;;;;;27.40;15.73;;;;;;;5.14;100.00;98796.78;7394926;19;20464;-52
2022/02/16 03:49:31;;;;;;;28.80;14.67;;;;;;;5.13;100.00;98789.94;7398855;19;20398;-55
2022/02/16 03:52:03;;;;;;;29.17;15.00;;;;;;;5.18;100.00;98790.09;7392882;19;20753;-51
2022/02/16 03:54:33;;;;;;;28.13;15.53;;;;;;;5.18;100.00;98796.91;7396894;19;20791;-52
2022/02/16 03:57:02;;;;;;;25.17;14.10;;;;;;;5.21;100.00;98787.66;7395574;19;20927;-48
2022/02/16 03:59:32;;;;;;;24.73;12.47;;;;;;;5.20;100.00;98783.34;7398788;19;20402;-52
2022/02/16 04:02:02;;;;;;;29.27;15.03;;;;;;;5.22;100.00;98776.59;7395214;19;20388;-51
2022/02/16 04:04:31;;;;;;;28.63;15.80;;;;;;;5.25;100.00;98776.69;7396774;19;20524;-55
2022/02/16 04:07:04;;;;;;;28.10;15.10;;;;;;;5.23;100.00;98778.31;7395130;19;20920;-51
2022/02/16 04:09:33;;;;;;;28.80;14.17;;;;;;;5.26;100.00;98777.56;7398415;19;20395;-53
2022/02/16 04:12:03;;;;;;;36.80;15.00;;;;;;;5.26;100.00;98768.22;7393193;19;20426;-51
2022/02/16 04:14:33;;;;;;;24.33;13.00;;;;;;;5.27;100.00;98769.94;7396381;19;20425;-54
2022/02/16 04:17:02;;;;;;;25.37;13.80;;;;;;;5.31;100.00;98765.78;7394403;19;20392;-50
2022/02/16 04:19:32;;;;;;;30.00;14.80;;;;;;;5.35;100.00;98759.06;7397700;19;20394;-52
2022/02/16 04:22:04;;;;;;;26.30;14.77;;;;;;;5.32;100.00;98753.88;7393825;19;20403;-51
2022/02/16 04:24:34;;;;;;;26.40;14.67;;;;;;;5.32;100.00;98747.06;7396092;19;20517;-53
2022/02/16 04:27:03;;;;;;;21.60;10.90;;;;;;;5.32;100.00;98747.06;7394561;19;25302;-49
2022/02/16 04:29:33;;;;;;;27.40;16.50;;;;;;;5.34;100.00;98735.19;7397890;19;20394;-50
2022/02/16 04:32:02;;;;;;;32.93;17.07;;;;;;;5.37;100.00;98736.97;7393385;19;20907;-52
2022/02/16 04:34:32;;;;;;;33.90;16.73;;;;;;;5.36;100.00;98732.66;7395775;19;20432;-49
2022/02/16 04:37:04;;;;;;;38.30;20.10;;;;;;;5.35;100.00;98736.94;7391908;19;20391;-53
2022/02/16 04:39:34;;;;;;;41.80;21.30;;;;;;;5.36;100.00;98732.66;7397538;19;20415;-53
2022/02/16 04:42:03;;;;;;;55.47;27.73;;;;;;;5.38;100.00;98726.78;7394333;19;23463;-53
2022/02/16 04:44:33;;;;;;;62.77;33.97;;;;;;;5.36;100.00;98714.78;7395473;19;20423;-52
2022/02/16 04:47:02;;;;;;;56.47;31.47;;;;;;;5.34;100.00;98713.88;7393061;19;20417;-55
2022/02/16 04:49:32;;;;;;;63.20;34.90;;;;;;;5.33;100.00;98717.25;7396751;19;20402;-53
2022/02/16 04:52:05;;;;;;;65.03;32.40;;;;;;;5.35;100.00;98706.25;7392021;19;20742;-50
2022/02/16 04:54:35;;;;;;;56.97;30.57;;;;;;;5.36;100.00;98696.88;7394896;19;20830;-53
2022/02/16 04:57:05;;;;;;;55.50;28.10;;;;;;;5.35;100.00;98700.25;7392725;19;21305;-54
2022/02/16 04:59:35;;;;;;;72.13;35.13;;;;;;;5.40;100.00;98688.47;7396077;19;20423;-53
2022/02/16 05:02:06;;;;;;;61.30;33.33;;;;;;;5.42;100.00;98684.25;7392629;19;20418;-55
2022/02/16 05:04:35;;;;;;;59.10;32.40;;;;;;;5.45;100.00;98676.69;7393590;19;20448;-53
2022/02/16 05:07:07;;;;;;;52.83;27.00;;;;;;;5.38;100.00;98664.53;7392990;19;20981;-54
2022/02/16 05:09:37;;;;;;;49.13;26.80;;;;;;;5.39;100.00;98653.50;7395112;19;20471;-53
2022/02/16 05:12:07;;;;;;;34.53;18.10;;;;;;;5.40;100.00;98652.66;7391733;19;20909;-55
2022/02/16 05:14:37;;;;;;;27.77;14.97;;;;;;;5.44;100.00;98643.38;7393813;19;20500;-52
2022/02/16 05:17:06;;;;;;;23.87;12.73;;;;;;;5.34;100.00;98634.59;7392493;19;20402;-51
2022/02/16 05:19:39;;;;;;;26.07;13.97;;;;;;;5.41;100.00;98628.81;7395810;19;20472;-52
2022/02/16 05:22:12;;;;;;;25.27;13.07;;;;;;;5.44;100.00;98610.13;7391563;19;20404;-53
2022/02/16 05:24:41;;;;;;;18.20;10.07;;;;;;;5.37;100.00;98611.63;7393680;19;20499;-51
2022/02/16 05:27:11;;;;;;;22.20;11.10;;;;;;;5.38;100.00;98609.13;7390874;19;20430;-51
2022/02/16 05:29:40;;;;;;;18.30;9.97;;;;;;;5.38;100.00;98601.47;7395631;19;20738;-52
2022/02/16 05:32:10;;;;;;;24.17;12.57;;;;;;;5.42;100.00;98591.34;7390891;19;20410;-52
2022/02/16 05:34:40;;;;;;;22.40;13.40;;;;;;;5.43;100.00;98587.94;7393404;19;20426;-55
2022/02/16 05:37:12;;;;;;;21.97;10.23;;;;;;;5.38;100.00;98583.56;7391290;19;20387;-54
2022/02/16 05:39:42;;;;;;;18.50;10.07;;;;;;;5.41;100.00;98582.78;7395743;19;20399;-55
2022/02/16 05:42:11;;;;;;;18.30;9.87;;;;;;;5.44;100.00;98566.66;7390007;19;20511;-53
2022/02/16 05:44:41;;;;;;;21.57;11.67;;;;;;;5.47;100.00;98559.94;7393435;19;20434;-53
2022/02/16 05:47:11;;;;;;;20.80;12.17;;;;;;;5.49;100.00;98555.72;7391543;19;20446;-52
2022/02/16 05:49:41;;;;;;;25.17;12.57;;;;;;;5.56;100.00;98540.53;7395185;19;20394;-54
2022/02/16 05:52:13;;;;;;;19.40;11.00;;;;;;;5.53;100.00;98531.97;7391165;19;20409;-48
2022/02/16 05:54:42;;;;;;;23.43;13.47;;;;;;;5.66;100.00;98525.44;7392927;19;20944;-53
2022/02/16 05:57:12;;;;;;;27.07;13.60;;;;;;;5.72;100.00;98522.19;7391116;19;20439;-56
2022/02/16 05:59:42;;;;;;;26.13;13.13;;;;;;;5.65;100.00;98510.94;7401823;19;20396;-54
2022/02/16 06:02:17;;;;;;;19.40;10.43;;;;;;;5.58;100.00;98503.09;7398562;19;20428;-52
2022/02/16 06:04:47;;;;;;;26.03;13.20;;;;;;;5.65;100.00;98494.72;7399504;19;20442;-53
2022/02/16 06:07:19;;;;;;;22.87;13.07;;;;;;;5.66;100.00;98491.34;7398096;19;20785;-55
2022/02/16 06:09:48;;;;;;;22.57;12.47;;;;;;;5.65;100.00;98485.34;7402521;19;20912;-51
2022/02/16 06:12:18;;;;;;;21.77;12.77;;;;;;;5.64;100.00;98475.09;7397726;19;20430;-49
2022/02/16 06:14:47;;;;;;;18.87;10.80;;;;;;;5.70;100.00;98471.81;7399534;19;20464;-55
2022/02/16 06:17:17;;;;;;;25.63;13.00;;;;;;;5.68;100.00;98474.31;7397705;19;20429;-49
2022/02/16 06:19:47;;;;;;;16.27;9.33;;;;;;;5.64;100.00;98469.97;7401218;19;20402;-55
2022/02/16 06:22:19;;;;;;;18.57;10.43;;;;;;;5.63;100.00;98466.53;7397521;19;20439;-55
2022/02/16 06:24:49;;;;;;;17.70;9.87;;;;;;;5.65;100.00;98469.16;7399420;19;20431;-54
2022/02/16 06:27:18;;;;;;;11.03;5.60;;;;;;;5.57;100.00;98465.50;7397624;19;20426;-51
2022/02/16 06:29:47;;;;;;;18.73;8.60;;;;;;;5.61;100.00;98460.53;7400354;19;20759;-53
2022/02/16 06:32:17;;;;;;;13.43;7.90;;;;;;;5.62;100.00;98458.81;7396381;19;20439;-49
2022/02/16 06:34:47;;;;;;;13.17;7.23;;;;;;;5.60;100.00;98460.50;7398677;19;20963;-51
2022/02/16 06:37:20;;;;;;;12.33;7.13;;;;;;;5.53;100.00;98447.53;7396651;19;20429;-52
2022/02/16 06:39:50;;;;;;;10.40;6.83;;;;;;;5.57;100.00;98437.38;7401475;19;20396;-56
2022/02/16 06:42:20;;;;;;;10.97;6.67;;;;;;;5.54;100.00;98421.13;7387226;19;20440;-55
2022/02/16 06:44:49;;;;;;;10.10;6.30;;;;;;;5.54;100.00;98410.91;7398899;19;20801;-52
2022/02/16 06:47:19;;;;;;;10.23;5.77;;;;;;;5.54;100.00;98395.53;7396528;19;20451;-56
2022/02/16 06:49:49;;;;;;;11.13;6.20;;;;;;;5.57;100.00;98388.75;7400284;19;20404;-49
2022/02/16 06:52:21;;;;;;;14.13;7.57;;;;;;;5.63;100.00;98368.44;7394190;19;21007;-56
2022/02/16 06:54:50;;;;;;;12.07;7.20;;;;;;;5.62;100.00;98364.16;7398658;19;20415;-52
2022/02/16 06:57:20;;;;;;;9.17;4.70;;;;;;;5.57;100.00;98358.06;7396894;19;20436;-51
2022/02/16 06:59:49;;;;;;;14.03;7.80;;;;;;;5.60;100.00;98353.91;7400532;19;20399;-52
2022/02/16 07:02:20;;;;;;;12.60;7.53;;;;;;;5.59;100.00;98341.94;7396462;19;20861;-55
2022/02/16 07:04:54;;;;;;;9.40;5.40;;;;;;;5.60;100.00;98341.13;7397514;19;20417;-53
2022/02/16 07:07:26;;;;;;;12.47;6.37;;;;;;;5.59;100.00;98324.03;7396726;19;20523;-55
2022/02/16 07:09:56;;;;;;;12.87;7.70;;;;;;;5.58;100.00;98318.91;7400193;19;20563;-50
2022/02/16 07:12:25;;;;;;;13.00;7.20;;;;;;;5.60;100.00;98312.09;7394727;19;20450;-51
2022/02/16 07:14:56;;;;;;;12.80;7.63;;;;;;;5.67;100.00;98308.84;7397787;19;20433;-53
2022/02/16 07:17:26;;;;;;;10.13;7.10;;;;;;;5.66;100.00;98305.41;7395835;19;21005;-53
2022/02/16 07:19:56;;;;;;;11.07;7.00;;;;;;;5.63;100.00;98312.16;7400202;19;20402;-56
2022/02/16 07:22:28;;;;;;;17.23;9.10;;;;;;;5.74;100.00;98295.34;7383297;19;20461;-52
2022/02/16 07:24:58;;;;;;;14.97;8.27;;;;;;;5.69;100.00;98289.28;7397220;19;20439;-52
2022/02/16 07:27:28;;;;;;;11.80;7.63;;;;;;;5.62;100.00;98293.41;7395917;19;20443;-54
2022/02/16 07:29:57;;;;;;;14.87;8.10;;;;;;;5.64;100.00;98278.09;7398774;19;20482;-52
2022/02/16 07:32:27;;;;;;;12.90;7.90;;;;;;;5.63;100.00;98276.34;7394755;19;20440;-52
2022/02/16 07:34:57;;;;;;;14.77;8.30;;;;;;;5.62;100.00;98265.25;7396974;19;20448;-55
2022/02/16 07:37:31;;;;;;;16.27;8.33;;;;;;;5.64;100.00;98273.81;7388674;19;20443;-55
2022/02/16 07:40:01;;;;;;;13.80;8.70;;;;;;;5.65;100.00;98254.25;7399154;19;20398;-55
2022/02/16 07:42:30;;;;;;;11.13;5.83;;;;;;;5.64;100.00;98247.41;7395986;19;20531;-56
2022/02/16 07:45:02;;;;;;;11.03;7.27;;;;;;;5.66;100.00;98238.91;7396412;19;20448;-53
2022/02/16 07:47:32;;;;;;;12.80;7.80;;;;;;;5.66;100.00;98230.38;7394825;19;20803;-55
2022/02/16 07:50:02;;;;;;;9.77;6.63;;;;;;;5.67;100.00;98225.31;7398589;19;20437;-53
2022/02/16 07:52:38;;;;;;;9.47;6.80;;;;;;;5.71;100.00;98218.53;7393012;19;20979;-50
2022/02/16 07:55:08;;;;;;;11.50;7.33;;;;;;;5.73;100.00;98210.88;7396242;19;20445;-56
2022/02/16 07:57:39;;;;;;;7.37;4.67;;;;;;;5.74;100.00;98205.81;7394838;19;20961;-54
2022/02/16 08:00:10;;;;;;;14.63;7.03;;;;;;;5.77;100.00;98192.22;7398316;19;20499;-54
2022/02/16 08:02:39;;;;;;;12.47;6.43;;;;;;;5.83;100.00;98191.50;7393882;19;20436;-56
2022/02/16 08:05:10;;;;;;;9.67;6.60;;;;;;;5.87;100.00;98183.03;7395744;19;20407;-54
2022/02/16 08:07:42;;;;;;;11.50;7.33;;;;;;;5.93;100.00;98170.34;7391227;19;20435;-53
2022/02/16 08:10:12;;;;;;;7.00;3.93;;;;;;;5.93;100.00;98167.78;7398536;19;20392;-52
2022/02/16 08:12:47;;;;;;;10.03;6.20;;;;;;;6.00;100.00;98153.41;7393338;19;21033;-49
2022/02/16 08:15:17;;;;;;;9.83;6.47;;;;;;;6.03;100.00;98146.69;7395416;19;20415;-52
2022/02/16 08:17:47;;;;;;;18.33;4.43;;;;;;;6.06;100.00;98144.16;7391545;19;20435;-55
2022/02/16 08:20:16;;;;;;;10.50;6.80;;;;;;;6.09;100.00;98140.81;7396878;19;20724;-53
2022/02/16 08:22:48;;;;;;;7.70;4.07;;;;;;;6.11;100.00;98117.78;7393471;19;20439;-52
2022/02/16 08:25:18;;;;;;;9.27;6.00;;;;;;;6.14;100.00;98111.03;7394589;19;20941;-55
2022/02/16 08:27:48;;;;;;;10.40;6.97;;;;;;;6.15;100.00;98106.78;7390144;19;20446;-53
2022/02/16 08:30:18;;;;;;;7.57;4.23;;;;;;;6.16;100.00;98111.91;7397261;19;20376;-52
2022/02/16 08:32:49;;;;;;;7.80;4.07;;;;;;;6.15;100.00;98096.53;7390665;19;20437;-54
2022/02/16 08:35:19;;;;;;;9.70;7.00;;;;;;;6.22;100.00;98086.41;7390774;19;20423;-53
2022/02/16 08:37:51;;;;;;;8.20;4.87;;;;;;;6.19;100.00;98090.63;7392077;19;20427;-53
2022/02/16 08:40:22;;;;;;;10.83;7.10;;;;;;;6.22;100.00;98073.59;7393528;19;20409;-55
2022/02/16 08:43:11;;;;;;;10.67;6.03;;;;;;;6.16;100.00;98062.41;7388452;19;20416;-56
2022/02/16 08:45:41;;;;;;;6.93;4.13;;;;;;;6.15;100.00;98056.41;7394227;19;20433;-56
2022/02/16 08:48:11;;;;;;;6.57;4.00;;;;;;;6.20;100.00;98043.69;7390061;19;20414;-54
2022/02/16 08:50:41;;;;;;;9.73;5.90;;;;;;;6.19;100.00;98041.97;7392681;19;20479;-56
2022/02/16 08:53:20;;;;;;;8.83;5.40;;;;;;;6.21;100.00;98035.19;7389157;19;20456;-55
2022/02/16 08:55:49;;;;;;;6.43;4.20;;;;;;;6.23;100.00;98020.69;7393176;19;20384;-54
2022/02/16 08:58:25;;;;;;;5.40;3.63;;;;;;;6.22;100.00;98011.31;7380625;19;20478;-55
2022/02/16 09:00:57;;;;;;;7.63;3.80;;;;;;;6.25;100.00;98002.81;7392012;19;20417;-56
2022/02/16 09:03:29;;;;;;;4.80;3.30;;;;;;;6.27;100.00;97996.88;7381548;19;20994;-56
2022/02/16 09:06:01;;;;;;;7.00;3.80;;;;;;;6.25;100.00;97987.44;7392513;19;20412;-56
2022/02/16 09:08:39;;;;;;;7.00;4.13;;;;;;;6.28;100.00;97978.09;7366878;19;20747;-54
2022/02/16 09:11:12;;;;;;;4.10;2.80;;;;;;;6.29;100.00;97966.16;7392193;19;20442;-56
2022/02/16 09:13:44;;;;;;;4.10;2.77;;;;;;;6.28;100.00;97962.75;7386027;19;20444;-53
2022/02/16 09:16:14;;;;;;;4.37;3.13;;;;;;;6.32;100.00;97944.00;7391655;19;20458;-54
2022/02/16 09:18:49;;;;;;;6.83;4.20;;;;;;;6.34;100.00;97939.78;7381832;19;20431;-52
2022/02/16 09:21:19;;;;;;;5.10;3.70;;;;;;;6.33;100.00;97922.69;7392049;19;20392;-51
2022/02/16 09:23:54;;;;;;;6.33;3.80;;;;;;;6.38;100.00;97909.06;7381655;19;20516;-54
2022/02/16 09:26:28;;;;;;;3.77;2.37;;;;;;;6.38;100.00;97898.81;7391932;19;20788;-53
2022/02/16 09:28:59;;;;;;;3.90;2.10;;;;;;;6.37;100.00;97892.88;7391743;19;21068;-52
2022/02/16 09:31:35;;;;;;;3.50;2.73;;;;;;;6.39;100.00;97885.19;7391120;19;20479;-57
2022/02/16 09:34:07;;;;;;;3.50;2.50;;;;;;;6.41;100.00;97866.44;7392769;19;20463;-58
2022/02/16 09:36:37;;;;;;;3.67;2.30;;;;;;;6.44;100.00;97853.69;7401423;19;20396;-56
2022/02/16 09:39:17;;;;;;;3.87;2.80;;;;;;;6.43;100.00;97859.66;7393347;19;20420;-54
2022/02/16 09:41:47;;;;;;;3.67;2.53;;;;;;;6.40;100.00;97851.91;7370146;19;20430;-55
2022/02/16 09:44:22;;;;;;;5.23;2.33;;;;;;;6.40;100.00;97851.06;7397537;19;20405;-55
2022/02/16 09:46:52;;;;;;;3.87;2.57;;;;;;;6.38;100.00;97847.59;7372303;19;20398;-56
2022/02/16 09:49:22;;;;;;;2.90;2.47;;;;;;;6.37;100.00;97823.72;7398590;19;20397;-55
2022/02/16 09:51:57;;;;;;;2.93;2.10;;;;;;;6.39;100.00;97824.59;7398659;19;20445;-56
2022/02/16 09:54:32;;;;;;;2.03;1.80;;;;;;;6.41;100.00;97816.91;7396709;19;20949;-54
2022/02/16 09:57:01;;;;;;;1.90;1.70;;;;;;;6.41;100.00;97825.44;7390551;19;20410;-57
2022/02/16 09:59:34;;;;;;;1.90;1.70;;;;;;;6.45;100.00;97819.53;7398672;19;20463;-56
2022/02/16 10:02:09;;;;;;;2.90;2.20;;;;;;;6.44;100.00;97822.06;7394161;19;20416;-56
2022/02/16 10:04:43;;;;;;;4.93;1.83;;;;;;;6.42;100.00;97813.50;7395236;19;20409;-56
2022/02/16 10:07:30;;;;;;;1.97;1.63;;;;;;;6.45;100.00;97816.09;7397622;19;20912;-57
2022/02/16 10:10:13;;;;;;;2.53;1.20;;;;;;;6.50;100.00;97805.94;7391548;19;20404;-57
2022/02/16 10:12:50;;;;;;;3.80;2.60;;;;;;;6.56;100.00;97803.44;7398175;19;20385;-54
2022/02/16 10:15:26;;;;;;;3.03;1.37;;;;;;;6.56;100.00;97795.75;7393290;19;20405;-54
2022/02/16 10:18:09;;;;;;;3.03;1.40;;;;;;;6.60;100.00;97792.34;7400024;19;20734;-57
2022/02/16 10:20:39;;;;;;;1.50;1.10;;;;;;;6.65;100.00;97711.28;7392325;19;20409;-53
2022/02/16 10:23:10;;;;;;;1.80;1.40;;;;;;;6.72;100.00;97699.38;7397119;19;20407;-57
2022/02/16 10:25:50;;;;;;;2.70;1.63;;;;;;;6.70;100.00;97701.94;7388796;19;21220;-52
2022/02/16 10:28:21;;;;;;;2.80;1.77;;;;;;;6.76;100.00;97706.22;7398097;19;20912;-58
2022/02/16 10:31:02;;;;;;;4.00;2.17;;;;;;;6.84;100.00;97693.50;7394042;19;20413;-58
2022/02/16 10:33:33;;;;;;;2.23;1.60;;;;;;;6.84;100.00;97693.50;7395617;19;20401;-58
2022/02/16 10:36:05;;;;;;;2.33;1.80;;;;;;;6.85;100.00;97679.81;7386610;19;20448;-58
2022/02/16 10:38:37;;;;;;;16.53;5.97;;;;;;;6.92;100.00;97680.75;7397224;19;20412;-56
2022/02/16 10:41:18;;;;;;;16.03;5.67;;;;;;;7.01;100.00;97667.97;7388969;19;20496;-56
2022/02/16 10:43:50;;;;;;;26.67;6.93;;;;;;;7.03;100.00;97687.66;7394969;19;20750;-58
2022/02/16 10:46:27;;;;;;;2.93;1.80;;;;;;;6.98;100.00;97670.53;7393810;19;20973;-57
2022/02/16 10:49:12;;;;;;;22.47;6.90;;;;;;;7.00;100.00;97654.31;7397317;19;20412;-56
2022/02/16 10:52:10;;;;;;;20.63;5.90;;;;;;;7.05;100.00;97666.28;7395494;19;20423;-56
2022/02/16 10:54:43;;;;;;;2.27;1.40;;;;;;;7.08;100.00;97640.69;7392384;19;20500;-58
2022/02/16 10:57:21;;;;;;;12.57;4.23;;;;;;;7.18;100.00;97621.06;7396115;19;20388;-58
2022/02/16 10:59:50;;;;;;;57.27;12.90;;;;;;;7.16;100.00;97624.50;7392976;19;20390;-58
2022/02/16 11:02:25;;;;;;;11.90;3.03;;;;;;;7.18;100.00;97608.25;7396328;19;20394;-58
2022/02/16 11:04:55;;;;;;;23.97;7.30;;;;;;;7.23;100.00;97617.66;7389778;19;20500;-57
2022/02/16 11:07:27;;;;;;;15.17;4.70;;;;;;;7.25;100.00;97612.56;7396359;19;20386;-54
2022/02/16 11:10:06;;;;;;;19.13;5.73;;;;;;;7.29;100.00;97598.91;7390874;19;20409;-58
2022/02/16 11:12:41;;;;;;;48.97;9.80;;;;;;;7.34;100.00;97597.19;7394002;19;20378;-58
2022/02/16 11:15:15;;;;;;;8.23;2.50;;;;;;;7.39;100.00;97581.84;7388990;19;20435;-55
2022/02/16 11:17:46;;;;;;;4.67;2.63;;;;;;;7.39;100.00;97580.13;7396709;19;20742;-56
2022/02/16 11:20:30;;;;;;;10.53;4.77;;;;;;;7.43;100.00;97557.91;7387216;19;20419;-55
2022/02/16 11:23:02;;;;;;;2.90;1.70;;;;;;;7.48;100.00;97573.34;7394731;19;20388;-57
2022/02/16 11:25:37;;;;;;;3.33;1.57;;;;;;;7.54;100.00;97575.91;7388479;19;20761;-55
2022/02/16 11:28:13;;;;;;;3.53;2.10;;;;;;;7.52;100.00;97555.38;7399340;19;20770;-56
2022/02/16 11:30:50;;;;;;;2.97;2.17;;;;;;;7.57;100.00;97558.81;7393387;19;20402;-54
2022/02/16 11:33:21;;;;;;;2.77;1.73;;;;;;;7.62;100.00;97557.97;7394040;19;20394;-54
2022/02/16 11:35:55;;;;;;;6.53;2.73;;;;;;;7.65;100.00;97540.84;7386521;19;20750;-55
2022/02/16 11:38:42;;;;;;;3.60;1.80;;;;;;;7.70;100.00;97526.34;7394662;19;21236;-54
2022/02/16 11:41:25;;;;;;;3.33;2.90;;;;;;;7.80;100.00;97545.16;7390264;19;21267;-56
2022/02/16 11:44:00;;;;;;;4.93;2.80;;;;;;;7.83;100.00;97527.22;7392693;19;21277;-56